createdAt,value
2022-08-09T00:01:14.401Z,182
2022-08-09T00:21:12.494Z,185
2022-08-09T00:41:12.455Z,185
2022-08-09T01:01:16.133Z,175
2022-08-09T01:21:12.223Z,168
2022-08-09T01:41:12.380Z,166
2022-08-09T02:01:18.238Z,169
2022-08-09T02:21:17.186Z,174
2022-08-09T02:41:12.292Z,178
2022-08-09T03:01:15.257Z,171
2022-08-09T03:21:12.237Z,172
2022-08-09T03:41:14.906Z,173
2022-08-09T04:01:12.232Z,169
2022-08-09T04:21:12.140Z,167
2022-08-09T04:41:12.044Z,163
2022-08-09T05:01:15.964Z,172
2022-08-09T05:21:20.939Z,179
2022-08-09T05:41:12.737Z,174
2022-08-09T06:01:12.034Z,180
2022-08-09T06:21:11.780Z,175
2022-08-09T06:41:18.438Z,172
2022-08-09T07:01:11.958Z,172
2022-08-09T07:21:11.884Z,193
2022-08-09T07:41:12.778Z,191
2022-08-09T08:01:11.969Z,181
2022-08-09T08:21:11.802Z,182
2022-08-09T08:41:11.285Z,174
2022-08-09T09:01:19.764Z,165
2022-08-09T09:21:11.737Z,168
2022-08-09T09:41:11.688Z,169
2022-08-09T10:01:30.411Z,169
2022-08-09T10:21:11.641Z,166
2022-08-09T10:41:11.624Z,156
2022-08-09T11:03:03.805Z,158
2022-08-09T11:21:11.587Z,152
2022-08-09T11:41:12.975Z,154
2022-08-09T12:01:15.341Z,163
2022-08-09T12:21:26.549Z,149
2022-08-09T12:41:11.281Z,159
2022-08-09T13:01:11.539Z,131
2022-08-09T13:22:33.178Z,154
2022-08-09T13:41:22.035Z,137
2022-08-09T14:01:13.353Z,143
2022-08-09T14:21:11.355Z,141
2022-08-09T14:41:24.140Z,158
2022-08-09T15:01:11.320Z,167
2022-08-09T15:21:54.120Z,168
2022-08-09T15:41:11.251Z,182
2022-08-09T16:01:11.251Z,177
2022-08-09T16:21:11.299Z,176
2022-08-09T16:41:16.579Z,180
2022-08-09T17:01:11.214Z,173
2022-08-09T17:21:10.924Z,181
2022-08-09T17:41:11.069Z,199
2022-08-09T18:01:11.147Z,191
2022-08-09T18:21:19.471Z,181
2022-08-09T18:41:10.483Z,181
2022-08-09T19:01:10.945Z,196
2022-08-09T19:21:10.918Z,189
2022-08-09T19:41:10.899Z,189
2022-08-09T20:01:10.660Z,172
2022-08-09T20:21:10.833Z,179
2022-08-09T20:41:10.685Z,186
2022-08-09T21:01:13.949Z,178
2022-08-09T21:21:17.042Z,185
2022-08-09T21:41:10.217Z,179
2022-08-09T22:01:11.624Z,184
2022-08-09T22:21:21.763Z,183
2022-08-09T22:41:10.625Z,183
2022-08-09T23:01:10.442Z,176
2022-08-09T23:21:10.572Z,171
2022-08-09T23:41:10.540Z,172
